createdAt,value
2023-05-02T00:01:20.012Z,100918.09
2023-05-02T00:03:47.089Z,100919.91
2023-05-02T00:06:13.897Z,100921.66
2023-05-02T00:08:41.335Z,100917.41
2023-05-02T00:11:08.053Z,100913.16
2023-05-02T00:13:34.924Z,100907.16
2023-05-02T00:16:01.888Z,100898.59
2023-05-02T00:18:29.004Z,100900.28
2023-05-02T00:20:57.096Z,100884.81
2023-05-02T00:23:24.168Z,100897.56
2023-05-02T00:25:51.078Z,100892.41
2023-05-02T00:28:18.438Z,100887.28
2023-05-02T00:30:45.967Z,100882.13
2023-05-02T00:33:14.451Z,100874.41
2023-05-02T00:35:41.718Z,100875.34
2023-05-02T00:38:08.453Z,100864.22
2023-05-02T00:40:49.677Z,100877.97
2023-05-02T00:43:16.744Z,100861.53
2023-05-02T00:45:45.604Z,100855.44
2023-05-02T00:48:13.125Z,100849.44
2023-05-02T00:50:41.980Z,100851.22
2023-05-02T00:53:10.237Z,100848.66
2023-05-02T00:55:37.495Z,100845.28
2023-05-02T00:58:16.497Z,100844.41
2023-05-02T01:01:11.059Z,100843.59
2023-05-02T01:04:04.810Z,100839.28
2023-05-02T01:07:00.585Z,100829.88
2023-05-02T01:09:34.225Z,100837.63
2023-05-02T01:12:04.857Z,100833.28
2023-05-02T01:14:36.347Z,100838.34
2023-05-02T01:17:08.313Z,100835.69
2023-05-02T01:19:43.709Z,100828.06
2023-05-02T01:22:11.884Z,100826.38
2023-05-02T01:24:54.814Z,100835.78
2023-05-02T01:27:35.051Z,100835.81
2023-05-02T01:30:03.626Z,100827.25
2023-05-02T01:32:33.600Z,100821.22
2023-05-02T01:35:02.520Z,100821.94
2023-05-02T01:37:31.150Z,100824.59
2023-05-02T01:40:02.058Z,100828.81
2023-05-02T01:42:30.532Z,100829.66
2023-05-02T01:45:00.186Z,100830.56
2023-05-02T01:47:30.447Z,100828.81
2023-05-02T01:49:58.557Z,100820.25
2023-05-02T01:52:27.495Z,100827.16
2023-05-02T01:54:57.775Z,100820.34
2023-05-02T01:57:25.697Z,100810.84
2023-05-02T01:59:57.037Z,100815.91
2023-05-02T02:02:29.274Z,100821.09
2023-05-02T02:04:57.543Z,100818.56
2023-05-02T02:07:24.446Z,100815.97
2023-05-02T02:09:53.004Z,100817.56
2023-05-02T02:12:31.155Z,100824.47
2023-05-02T02:15:14.520Z,100820.19
2023-05-02T02:17:46.423Z,100810.81
2023-05-02T02:20:15.452Z,100807.47
2023-05-02T02:22:44.348Z,100802.25
2023-05-02T02:25:14.503Z,100803.03
2023-05-02T02:27:42.541Z,100801.38
2023-05-02T02:30:10.564Z,100805.53
2023-05-02T02:32:38.114Z,100799.59
2023-05-02T02:35:05.698Z,100798.72
2023-05-02T02:37:41.065Z,100794.34
2023-05-02T02:40:29.980Z,100801.16
2023-05-02T02:43:05.728Z,100797.63
2023-05-02T02:45:43.389Z,100793.41
2023-05-02T02:48:16.620Z,100793.50
2023-05-02T02:50:59.699Z,100792.75
2023-05-02T02:53:33.216Z,100791.88
2023-05-02T02:56:06.110Z,100789.19
2023-05-02T02:58:55.353Z,100782.34
2023-05-02T03:01:24.575Z,100780.53
2023-05-02T03:03:53.553Z,100776.34
2023-05-02T03:06:20.878Z,100767.78
2023-05-02T03:08:48.371Z,100774.69
2023-05-02T03:11:19.304Z,100767.88
2023-05-02T03:13:47.362Z,100768.75
2023-05-02T03:16:37.959Z,100761.91
2023-05-02T03:19:08.518Z,100758.47
2023-05-02T03:21:36.363Z,100763.66
2023-05-02T03:24:10.132Z,100752.34
2023-05-02T03:26:36.878Z,100756.53
2023-05-02T03:29:05.640Z,100754.69
2023-05-02T03:31:37.857Z,100752.88
2023-05-02T03:34:05.588Z,100747.81
2023-05-02T03:36:33.019Z,100757.22
2023-05-02T03:38:59.748Z,100760.72
2023-05-02T03:41:27.023Z,100764.22
2023-05-02T03:44:01.175Z,100767.69
2023-05-02T03:46:28.671Z,100759.22
2023-05-02T03:48:58.114Z,100759.25
2023-05-02T03:51:25.920Z,100760.16
2023-05-02T03:53:55.368Z,100768.75
2023-05-02T03:56:22.149Z,100766.22
2023-05-02T03:59:07.300Z,100773.09
2023-05-02T04:01:34.295Z,100773.06
2023-05-02T04:04:02.482Z,100784.13
2023-05-02T04:06:34.128Z,100785.03
2023-05-02T04:09:04.304Z,100775.63
2023-05-02T04:11:43.416Z,100776.47
2023-05-02T04:14:12.361Z,100773.06
2023-05-02T04:16:40.646Z,100775.63
2023-05-02T04:19:07.571Z,100784.25
2023-05-02T04:21:37.256Z,100783.41
2023-05-02T04:24:06.060Z,100783.38
2023-05-02T04:26:33.192Z,100797.06
2023-05-02T04:29:05.720Z,100797.06
2023-05-02T04:31:33.392Z,100794.38
2023-05-02T04:34:00.362Z,100787.63
2023-05-02T04:36:34.160Z,100801.34
2023-05-02T04:39:01.720Z,100798.78
2023-05-02T04:41:32.108Z,100810.81
2023-05-02T04:44:04.002Z,100811.72
2023-05-02T04:46:30.940Z,100818.50
2023-05-02T04:48:57.853Z,100820.16
2023-05-02T04:51:24.749Z,100816.72
2023-05-02T04:53:52.632Z,100820.91
2023-05-02T04:56:19.667Z,100820.88
2023-05-02T04:58:46.965Z,100824.31
2023-05-02T05:01:13.996Z,100826.13
2023-05-02T05:03:41.196Z,100830.47
2023-05-02T05:06:09.060Z,100834.81
2023-05-02T05:08:36.062Z,100834.84
2023-05-02T05:11:05.182Z,100834.88
2023-05-02T05:13:32.716Z,100839.22
2023-05-02T05:15:59.686Z,100843.53
2023-05-02T05:18:30.907Z,100847.84
2023-05-02T05:20:58.113Z,100848.75
2023-05-02T05:23:24.840Z,100853.88
2023-05-02T05:25:51.860Z,100861.63
2023-05-02T05:28:19.254Z,100852.22
2023-05-02T05:30:46.767Z,100853.09
2023-05-02T05:33:17.628Z,100857.41
2023-05-02T05:35:45.168Z,100853.91
2023-05-02T05:38:11.890Z,100859.09
2023-05-02T05:40:41.674Z,100860.78
2023-05-02T05:43:09.171Z,100863.41
2023-05-02T05:45:38.353Z,100866.84
2023-05-02T05:48:06.547Z,100868.59
2023-05-02T05:50:41.039Z,100881.50
2023-05-02T05:53:08.053Z,100883.28
2023-05-02T05:55:37.567Z,100876.41
2023-05-02T05:58:06.235Z,100884.22
2023-05-02T06:00:38.617Z,100889.38
2023-05-02T06:03:08.941Z,100889.38
2023-05-02T06:05:36.983Z,100888.56
2023-05-02T06:08:03.958Z,100885.19
2023-05-02T06:10:31.526Z,100896.38
2023-05-02T06:47:30.139Z,100894.16
2023-05-02T06:49:57.137Z,100897.59
2023-05-02T06:52:24.061Z,100906.19
2023-05-02T06:54:50.795Z,100907.06
2023-05-02T06:57:17.574Z,100907.94
2023-05-02T06:59:44.390Z,100919.13
2023-05-02T07:02:11.397Z,100907.09
2023-05-02T07:04:38.214Z,100902.84
2023-05-02T07:07:05.097Z,100919.19
2023-05-02T07:09:31.948Z,100914.00
2023-05-02T07:11:58.794Z,100913.22
2023-05-02T07:14:25.484Z,100913.22
2023-05-02T07:16:53.417Z,100923.53
2023-05-02T07:19:20.365Z,100914.94
2023-05-02T07:21:47.040Z,100907.19
2023-05-02T07:24:13.768Z,100913.22
2023-05-02T07:26:41.096Z,100902.97
2023-05-02T07:29:09.764Z,100894.38
2023-05-02T07:31:36.602Z,100891.88
2023-05-02T07:34:03.411Z,100911.66
2023-05-02T07:36:30.105Z,100906.50
2023-05-02T07:38:57.160Z,100904.78
2023-05-02T07:41:23.907Z,100905.66
2023-05-02T07:43:50.635Z,100916.00
2023-05-02T07:46:17.435Z,100919.38
2023-05-02T07:48:45.069Z,100923.72
2023-05-02T07:51:12.194Z,100926.28
2023-05-02T07:53:38.903Z,100922.88
2023-05-02T07:56:07.203Z,100928.94
2023-05-02T07:58:37.314Z,100926.34
2023-05-02T08:01:04.708Z,100937.53
2023-05-02T08:03:31.666Z,100934.09
2023-05-02T08:05:58.659Z,100939.28
2023-05-02T08:08:25.410Z,100940.16
2023-05-02T08:10:52.206Z,100933.28
2023-05-02T08:13:18.996Z,100939.34
2023-05-02T08:15:46.163Z,100945.38
2023-05-02T08:18:13.142Z,100941.91
2023-05-02T08:20:39.909Z,100927.34
2023-05-02T08:23:06.798Z,100918.75
2023-05-02T08:25:33.563Z,100931.69
2023-05-02T08:28:03.275Z,100925.69
2023-05-02T08:30:30.073Z,100939.44
2023-05-02T08:32:59.169Z,100934.28
2023-05-02T08:35:26.086Z,100928.28
2023-05-02T08:37:52.912Z,100929.97
2023-05-02T08:40:33.627Z,100936.03
2023-05-02T08:43:07.512Z,100934.28
2023-05-02T08:45:43.132Z,100934.28
2023-05-02T08:48:12.119Z,100955.78
2023-05-02T08:50:50.199Z,100959.25
2023-05-02T08:53:18.624Z,100967.84
2023-05-02T08:55:46.885Z,100947.94
2023-05-02T08:58:16.129Z,100933.19
2023-05-02T09:00:48.643Z,100943.44
2023-05-02T09:03:32.798Z,100943.44
2023-05-02T09:06:16.417Z,100948.63
2023-05-02T09:08:44.673Z,100951.09
2023-05-02T09:11:12.912Z,100955.41
2023-05-02T09:13:53.647Z,100961.50
2023-05-02T09:16:25.636Z,100963.22
2023-05-02T09:18:54.595Z,100964.06
2023-05-02T09:21:27.033Z,100952.69
2023-05-02T09:23:59.360Z,100956.03
2023-05-02T09:26:33.656Z,100973.25
2023-05-02T09:29:02.369Z,100963.56
2023-05-02T09:34:10.598Z,100966.16
2023-05-02T09:36:42.155Z,100971.34
2023-05-02T09:39:16.914Z,100970.44
2023-05-02T09:41:46.798Z,100968.59
2023-05-02T09:44:19.532Z,100970.31
2023-05-02T09:47:00.448Z,100967.59
2023-05-02T09:49:41.186Z,100963.97
2023-05-02T09:52:16.016Z,100960.47
2023-05-02T09:54:43.391Z,100961.19
2023-05-02T09:57:11.348Z,100960.28
2023-05-02T09:59:41.693Z,100957.59
2023-05-02T10:02:11.422Z,100951.38
2023-05-02T10:04:39.344Z,100958.19
2023-05-02T10:07:10.504Z,100966.88
2023-05-02T10:09:43.508Z,100972.81
2023-05-02T10:12:12.608Z,100970.97
2023-05-02T10:14:53.289Z,100967.25
2023-05-02T10:17:31.105Z,100968.97
2023-05-02T10:20:03.922Z,100974.97
2023-05-02T10:22:33.424Z,100967.16
2023-05-02T10:25:01.670Z,100969.91
2023-05-02T10:27:30.365Z,100974.91
2023-05-02T10:29:58.911Z,100967.69
2023-05-02T10:32:29.532Z,100969.28
2023-05-02T10:35:06.355Z,100972.59
2023-05-02T10:37:36.451Z,100973.53
2023-05-02T10:40:06.016Z,100974.56
2023-05-02T10:42:39.137Z,100976.53
2023-05-02T10:45:12.132Z,100978.50
2023-05-02T10:47:39.114Z,100982.06
2023-05-02T10:50:06.504Z,100981.31
2023-05-02T10:52:38.347Z,100984.78
2023-05-02T10:55:20.115Z,100976.75
2023-05-02T10:57:59.296Z,100982.66
2023-05-02T11:00:32.068Z,100978.97
2023-05-02T11:03:00.076Z,100980.69
2023-05-02T11:05:27.660Z,100986.88
2023-05-02T11:08:16.789Z,100982.69
2023-05-02T11:10:46.159Z,100979.22
2023-05-02T11:13:13.183Z,100985.25
2023-05-02T11:15:39.867Z,100982.56
2023-05-02T11:18:09.866Z,100990.19
2023-05-02T11:20:39.660Z,100982.41
2023-05-02T11:23:26.228Z,100982.47
2023-05-02T11:25:57.485Z,100982.44
2023-05-02T11:28:50.261Z,100988.44
2023-05-02T11:31:28.865Z,100995.56
2023-05-02T11:34:02.868Z,100988.63
2023-05-02T11:36:30.659Z,100991.81
2023-05-02T11:38:57.382Z,100990.88
2023-05-02T11:41:38.349Z,100989.03
2023-05-02T11:44:05.678Z,100993.19
2023-05-02T11:46:32.812Z,100995.63
2023-05-02T11:49:01.224Z,100999.03
2023-05-02T11:51:28.074Z,101003.47
2023-05-02T11:53:55.555Z,101011.28
2023-05-02T11:56:29.178Z,100998.28
2023-05-02T11:59:01.045Z,101001.47
2023-05-02T12:01:28.401Z,101007.56
2023-05-02T12:04:07.845Z,101020.44
2023-05-02T12:06:35.615Z,101023.16
2023-05-02T12:09:14.273Z,101015.44
2023-05-02T12:12:09.854Z,101018.19
2023-05-02T12:14:38.081Z,101018.75
2023-05-02T12:17:04.832Z,101026.50
2023-05-02T12:19:31.629Z,101036.28
2023-05-02T12:21:58.517Z,101032.91
2023-05-02T12:24:25.696Z,101026.09
2023-05-02T12:27:12.351Z,101029.63
2023-05-02T12:29:49.104Z,101027.41
2023-05-02T12:32:19.255Z,101022.22
2023-05-02T12:34:46.438Z,101021.34
2023-05-02T12:37:13.158Z,101022.28
2023-05-02T12:39:44.595Z,101029.34
2023-05-02T12:42:15.714Z,101022.31
2023-05-02T12:44:45.255Z,101033.50
2023-05-02T12:47:13.803Z,101023.16
2023-05-02T12:49:52.781Z,101016.28
2023-05-02T12:52:51.606Z,101013.69
2023-05-02T12:55:19.850Z,101024.03
2023-05-02T12:57:47.160Z,101025.84
2023-05-02T13:00:16.670Z,101020.69
2023-05-02T13:02:43.484Z,101023.25
2023-05-02T13:05:16.724Z,101019.81
2023-05-02T13:07:43.789Z,101018.91
2023-05-02T13:10:14.244Z,101023.19
2023-05-02T13:12:43.745Z,101026.50
2023-05-02T13:15:11.640Z,101025.69
2023-05-02T13:17:38.863Z,101025.69
2023-05-02T13:20:07.593Z,101027.41
2023-05-02T13:22:34.579Z,101032.53
2023-05-02T13:25:01.345Z,101036.16
2023-05-02T13:27:28.291Z,101030.94
2023-05-02T13:29:55.073Z,101031.81
2023-05-02T13:32:22.060Z,101036.09
2023-05-02T13:34:48.848Z,101029.25
2023-05-02T13:37:15.701Z,101038.91
2023-05-02T13:39:42.432Z,101036.38
2023-05-02T13:42:09.164Z,101038.22
2023-05-02T13:44:36.551Z,101039.13
2023-05-02T13:47:04.062Z,101042.72
2023-05-02T13:49:31.173Z,101038.31
2023-05-02T13:51:57.894Z,101034.00
2023-05-02T13:54:24.691Z,101042.63
2023-05-02T13:56:51.468Z,101047.41
2023-05-02T13:59:18.251Z,101051.63
2023-05-02T14:01:45.023Z,101048.22
2023-05-02T14:04:12.012Z,101052.53
2023-05-02T14:06:39.041Z,101055.00
2023-05-02T14:09:07.272Z,101057.44
2023-05-02T14:11:34.085Z,101062.91
2023-05-02T14:14:01.174Z,101062.25
2023-05-02T14:16:28.171Z,101065.88
2023-05-02T14:18:55.162Z,101072.22
2023-05-02T14:21:21.898Z,101055.91
2023-05-02T14:23:48.601Z,101069.75
2023-05-02T14:26:20.172Z,101061.19
2023-05-02T14:28:47.245Z,101064.78
2023-05-02T14:31:14.182Z,101073.59
2023-05-02T14:33:41.245Z,101081.56
2023-05-02T14:36:07.934Z,101080.44
2023-05-02T14:38:35.534Z,101067.22
2023-05-02T14:41:03.165Z,101075.56
2023-05-02T14:43:29.905Z,101073.75
2023-05-02T14:45:57.776Z,101082.69
2023-05-02T14:48:25.349Z,101086.94
2023-05-02T14:50:52.078Z,101079.38
2023-05-02T14:53:20.735Z,101086.31
2023-05-02T14:55:47.553Z,101081.13
2023-05-02T14:58:20.664Z,101084.63
2023-05-02T15:00:48.216Z,101090.53
2023-05-02T15:03:17.509Z,101088.09
2023-05-02T15:05:44.527Z,101087.09
2023-05-02T15:08:11.304Z,101090.72
2023-05-02T15:10:39.316Z,101081.16
2023-05-02T15:13:06.829Z,101092.34
2023-05-02T15:15:33.714Z,101095.00
2023-05-02T15:18:00.660Z,101096.03
2023-05-02T15:20:27.383Z,101105.53
2023-05-02T15:22:54.192Z,101102.19
2023-05-02T15:25:20.987Z,101106.78
2023-05-02T15:27:47.731Z,101109.53
2023-05-02T15:30:15.903Z,101106.16
2023-05-02T15:32:43.857Z,101110.59
2023-05-02T15:35:13.650Z,101121.09
2023-05-02T15:37:40.444Z,101105.59
2023-05-02T15:40:07.942Z,101112.56
2023-05-02T15:42:36.982Z,101115.22
2023-05-02T15:45:04.673Z,101116.13
2023-05-02T15:47:31.777Z,101114.47
2023-05-02T15:49:58.922Z,101120.59
2023-05-02T15:52:25.742Z,101122.31
2023-05-02T15:54:52.930Z,101119.84
2023-05-02T15:57:19.955Z,101126.78
2023-05-02T15:59:46.780Z,101131.13
2023-05-02T16:02:13.823Z,101126.88
2023-05-02T16:04:41.237Z,101136.34
2023-05-02T16:07:07.988Z,101135.47
2023-05-02T16:09:34.913Z,101138.13
2023-05-02T16:12:01.674Z,101139.06
2023-05-02T16:14:29.065Z,101144.25
2023-05-02T16:16:56.401Z,101139.19
2023-05-02T16:19:23.224Z,101144.56
2023-05-02T16:21:50.147Z,101153.25
2023-05-02T16:24:17.208Z,101152.44
2023-05-02T16:26:45.565Z,101144.69
2023-05-02T16:29:12.553Z,101149.03
2023-05-02T16:31:39.325Z,101153.38
2023-05-02T16:34:06.443Z,101160.31
2023-05-02T16:36:33.456Z,101157.72
2023-05-02T16:39:00.264Z,101159.47
2023-05-02T16:41:27.477Z,101154.28
2023-05-02T16:43:54.222Z,101151.69
2023-05-02T16:46:21.002Z,101158.66
2023-05-02T16:48:47.818Z,101157.78
2023-05-02T16:51:14.552Z,101165.56
2023-05-02T16:53:43.570Z,101171.72
2023-05-02T16:56:10.401Z,101159.63
2023-05-02T16:58:37.090Z,101160.44
2023-05-02T17:01:05.367Z,101166.50
2023-05-02T17:03:32.146Z,101168.19
2023-05-02T17:06:01.106Z,101169.03
2023-05-02T17:08:28.425Z,101165.56
2023-05-02T17:10:56.310Z,101176.81
2023-05-02T17:13:23.101Z,101181.16
2023-05-02T17:15:50.078Z,101189.84
2023-05-02T17:18:16.967Z,101191.56
2023-05-02T17:20:46.058Z,101189.81
2023-05-02T17:23:12.998Z,101190.66
2023-05-02T17:25:39.905Z,101198.47
2023-05-02T17:28:06.672Z,101199.41
2023-05-02T17:30:34.033Z,101202.91
2023-05-02T17:33:01.339Z,101211.53
2023-05-02T17:35:28.200Z,101215.88
2023-05-02T17:37:55.484Z,101209.91
2023-05-02T17:40:22.296Z,101210.75
2023-05-02T17:42:49.116Z,101215.97
2023-05-02T17:45:16.820Z,101215.13
2023-05-02T17:47:45.977Z,101212.53
2023-05-02T17:50:14.269Z,101227.28
2023-05-02T17:52:41.125Z,101229.88
2023-05-02T17:55:08.792Z,101230.72
2023-05-02T17:57:35.803Z,101231.63
2023-05-02T18:00:04.621Z,101236.81
2023-05-02T18:02:33.585Z,101239.41
2023-05-02T18:05:01.734Z,101239.44
2023-05-02T18:07:30.087Z,101248.06
2023-05-02T18:09:57.118Z,101252.41
2023-05-02T18:12:24.308Z,101257.59
2023-05-02T18:14:52.659Z,101264.50
2023-05-02T18:17:20.955Z,101265.34
2023-05-02T18:19:50.144Z,101271.41
2023-05-02T18:22:19.660Z,101272.28
2023-05-02T18:24:47.209Z,101274.00
2023-05-02T18:27:14.650Z,101275.75
2023-05-02T18:29:41.553Z,101278.34
2023-05-02T18:32:08.752Z,101287.03
2023-05-02T18:34:38.439Z,101282.72
2023-05-02T18:37:06.929Z,101289.66
2023-05-02T18:39:34.418Z,101274.97
2023-05-02T18:42:03.221Z,101285.34
2023-05-02T18:44:30.935Z,101298.31
2023-05-02T18:46:58.025Z,101305.22
2023-05-02T18:49:26.308Z,101301.75
2023-05-02T18:51:54.675Z,101306.94
2023-05-02T18:54:23.450Z,101313.84
2023-05-02T18:56:50.519Z,101315.59
2023-05-02T18:59:19.114Z,101325.06
2023-05-02T19:01:48.494Z,101325.97
2023-05-02T19:04:15.543Z,101325.94
2023-05-02T19:06:43.171Z,101332.00
2023-05-02T19:09:10.092Z,101337.19
2023-05-02T19:11:36.931Z,101339.78
2023-05-02T19:14:04.052Z,101332.00
2023-05-02T19:16:31.751Z,101341.50
2023-05-02T19:18:58.905Z,101346.66
2023-05-02T19:21:25.936Z,101344.94
2023-05-02T19:23:53.775Z,101356.16
2023-05-02T19:26:20.762Z,101351.84
2023-05-02T19:28:47.703Z,101347.53
2023-05-02T19:31:17.944Z,101357.00
2023-05-02T19:33:52.160Z,101363.09
2023-05-02T19:36:20.348Z,101366.53
2023-05-02T19:38:59.748Z,101373.44
2023-05-02T19:41:27.238Z,101370.84
2023-05-02T19:43:56.999Z,101369.97
2023-05-02T19:46:23.909Z,101363.91
2023-05-02T19:48:50.900Z,101373.44
2023-05-02T19:51:22.205Z,101383.78
2023-05-02T19:53:49.702Z,101382.94
2023-05-02T19:56:16.715Z,101382.91
2023-05-02T19:58:44.165Z,101388.09
2023-05-02T20:01:11.519Z,101395.88
2023-05-02T20:03:39.045Z,101390.69
2023-05-02T20:06:06.944Z,101399.28
2023-05-02T20:08:34.752Z,101402.72
2023-05-02T20:11:01.751Z,101405.31
2023-05-02T20:13:28.843Z,101402.69
2023-05-02T20:15:56.152Z,101402.69
2023-05-02T20:18:23.393Z,101410.47
2023-05-02T20:20:50.558Z,101413.09
2023-05-02T20:23:17.538Z,101419.97
2023-05-02T20:25:45.217Z,101414.78
2023-05-02T20:28:12.432Z,101417.38
2023-05-02T20:30:40.138Z,101410.44
2023-05-02T20:33:15.484Z,101410.41
2023-05-02T20:35:43.251Z,101419.03
2023-05-02T20:38:10.650Z,101412.13
2023-05-02T20:40:42.908Z,101414.72
2023-05-02T20:43:09.919Z,101407.00
2023-05-02T20:45:39.141Z,101416.44
2023-05-02T20:48:06.844Z,101415.59
2023-05-02T20:50:34.050Z,101410.41
2023-05-02T20:53:01.107Z,101415.50
2023-05-02T20:55:30.788Z,101409.50
2023-05-02T20:57:58.148Z,101414.69
2023-05-02T21:00:25.517Z,101416.41
2023-05-02T21:02:52.958Z,101417.25
2023-05-02T21:05:20.453Z,101417.28
2023-05-02T21:07:47.403Z,101405.19
2023-05-02T21:10:15.150Z,101400.00
2023-05-02T21:12:42.314Z,101405.22
2023-05-02T21:15:09.695Z,101412.13
2023-05-02T21:17:39.722Z,101416.44
2023-05-02T21:20:07.828Z,101412.97
2023-05-02T21:22:35.163Z,101412.13
2023-05-02T21:25:03.320Z,101415.56
2023-05-02T21:27:30.532Z,101415.56
2023-05-02T21:29:57.370Z,101412.13
2023-05-02T21:32:26.045Z,101417.31
2023-05-02T21:34:52.924Z,101415.59
2023-05-02T21:37:19.812Z,101412.97
2023-05-02T21:39:46.580Z,101416.44
2023-05-02T21:42:13.443Z,101413.84
2023-05-02T21:44:40.228Z,101400.00
2023-05-02T21:47:07.054Z,101412.06
2023-05-02T21:49:33.914Z,101409.38
2023-05-02T21:52:00.848Z,101411.09
2023-05-02T21:54:27.713Z,101408.63
2023-05-02T21:56:54.484Z,101414.53
2023-05-02T21:59:21.233Z,101419.59
2023-05-02T22:01:48.075Z,101425.69
2023-05-02T22:04:14.878Z,101429.16
2023-05-02T22:06:42.369Z,101424.88
2023-05-02T22:09:10.484Z,101433.53
2023-05-02T22:11:37.464Z,101432.63
2023-05-02T22:14:04.309Z,101438.53
2023-05-02T22:16:31.345Z,101440.28
2023-05-02T22:18:58.141Z,101446.38
2023-05-02T22:21:25.199Z,101448.06
2023-05-02T22:23:52.010Z,101448.78
2023-05-02T22:26:18.772Z,101447.06
2023-05-02T22:28:45.554Z,101446.25
2023-05-02T22:31:12.526Z,101458.34
2023-05-02T22:33:39.240Z,101456.69
2023-05-02T22:36:06.247Z,101448.09
2023-05-02T22:38:33.197Z,101448.88
2023-05-02T22:41:00.917Z,101452.31
2023-05-02T22:43:27.660Z,101459.25
2023-05-02T22:45:54.635Z,101457.53
2023-05-02T22:48:21.364Z,101469.53
2023-05-02T22:50:48.854Z,101470.25
2023-05-02T22:53:15.905Z,101472.75
2023-05-02T22:55:42.649Z,101470.88
2023-05-02T22:58:09.376Z,101478.66
2023-05-02T23:00:36.600Z,101469.22
2023-05-02T23:03:03.399Z,101471.75
2023-05-02T23:05:30.492Z,101485.50
2023-05-02T23:07:58.049Z,101473.44
2023-05-02T23:10:25.112Z,101476.97
2023-05-02T23:12:51.836Z,101471.88
2023-05-02T23:15:18.911Z,101464.19
2023-05-02T23:17:45.670Z,101476.25
2023-05-02T23:20:12.790Z,101472.75
2023-05-02T23:22:46.457Z,101470.88
2023-05-02T23:25:15.034Z,101472.53
2023-05-02T23:27:41.824Z,101470.00
2023-05-02T23:30:09.342Z,101476.06
2023-05-02T23:32:36.826Z,101463.09
2023-05-02T23:35:05.827Z,101460.56
2023-05-02T23:37:33.117Z,101467.34
2023-05-02T23:40:01.119Z,101462.97
2023-05-02T23:42:29.911Z,101456.16
2023-05-02T23:44:57.924Z,101457.03
2023-05-02T23:47:28.865Z,101452.78
2023-05-02T23:49:55.661Z,101452.88
2023-05-02T23:52:22.387Z,101445.09
2023-05-02T23:54:49.643Z,101454.34
2023-05-02T23:57:16.354Z,101451.72
2023-05-02T23:59:43.231Z,101446.63
